Huxford, AL (36543)

9:44 PM CDT on July 30, 2016 (GMT -0500)
B.E.C. | | Change Station

Elev 272 ft 31.07 °N, 87.37 °W | Updated 1 minute ago

Overcast
Overcast
79.9 °F
Feels Like 86 °F
N
0.0
Wind Variable Wind from SSE
Gusts 0.0 mph

Today
High -- | Low -- °F
--% Chance of Precip.
Yesterday
High -- | Low -- °F
Precip. -- in
Pressure 30.00 in
Visibility 10.0 miles
Clouds Few 3400 ft
Mostly Cloudy 5000 ft
Overcast 7500 ft
Heat Index 86 °F
Dew Point 77 °F
Humidity 92%
Rainfall 0.00 in
Snow Depth Not available.
6:05 AM 7:46 PM
Waning Crescent, 9% visible
METAR KGZH 310153Z AUTO VRB05KT 10SM FEW034 BKN050 OVC075 29/23 A3001 RMK AO2 SLP157 T02890233 TSNO
Pressure 30.00 in
Visibility 10.0 miles
Clouds Few 3400 ft
Mostly Cloudy 5000 ft
Overcast 7500 ft
Heat Index 86 °F
Dew Point 77 °F
Humidity 92%
Rainfall 0.00 in
Snow Depth Not available.
6:05 AM 7:46 PM
Waning Crescent, 9% visible
METAR KGZH 310153Z AUTO VRB05KT 10SM FEW034 BKN050 OVC075 29/23 A3001 RMK AO2 SLP157 T02890233 TSNO

10-Day Weather Forecast

Almanac

Astronomy

Jul. 30, 2016 Rise Set
Actual Time
Civil Twilight
Nautical Twilight
Astronomical Twilight
Moon
Length of Visible Light
Length of Day
Tomorrow will be .
, % of the Moon is Illuminated

Today's Extremes

State Highs State Lows

Community

WunderPhotos

Upload Photos

1,928,715 photos uploaded!

WunderBlog® & News

Nearby

Air Quality

  Air Quality AQ Index Pollutant
Not available.

Snow Depth

Station Depth Elevation

Earthquake Activity

City Distance Mag. Time & Date
Minimum magnitude displayed is 2.5.

Coastal Water Temperatures

Place Temperature

Stations

Nearby Weather Stations

Station Location Temp. Windchill Dew Point Humidity Wind Precip. Elev Updated Type
                   

Watches & Warnings

There are currently no watches in effect.